createdAt,value
2024-05-09T00:01:31.069Z,59.60
2024-05-09T00:06:53.769Z,59.90
2024-05-09T00:12:19.113Z,59.70
2024-05-09T00:17:42.163Z,60.40
2024-05-09T00:23:05.357Z,60.60
2024-05-09T00:28:30.830Z,61.30
2024-05-09T00:33:54.190Z,61.50
2024-05-09T00:39:17.132Z,61.00
2024-05-09T00:44:42.585Z,61.20
2024-05-09T00:50:10.119Z,61.70
2024-05-09T00:55:40.067Z,61.40
2024-05-09T01:01:07.737Z,62.80
2024-05-09T01:06:30.498Z,62.30
2024-05-09T01:11:53.257Z,62.40
2024-05-09T01:17:18.799Z,62.80
2024-05-09T01:22:41.573Z,61.90
2024-05-09T01:28:07.465Z,61.40
2024-05-09T01:33:30.992Z,61.50
2024-05-09T01:38:53.867Z,61.80
2024-05-09T01:44:19.313Z,61.70
2024-05-09T01:49:41.995Z,62.30
2024-05-09T01:55:06.634Z,61.90
2024-05-09T02:00:38.907Z,63.00
2024-05-09T02:06:04.989Z,63.60
2024-05-09T02:11:27.812Z,62.90
2024-05-09T02:16:53.343Z,62.90
2024-05-09T02:22:16.069Z,63.20
2024-05-09T02:27:38.897Z,62.80
2024-05-09T02:33:04.915Z,63.10
2024-05-09T02:38:27.825Z,62.40
2024-05-09T02:43:50.668Z,62.20
2024-05-09T02:49:16.121Z,62.30
2024-05-09T02:54:38.965Z,62.60
2024-05-09T03:00:01.611Z,62.70
2024-05-09T03:05:26.985Z,62.40
2024-05-09T03:10:49.766Z,63.90
2024-05-09T03:16:12.577Z,63.30
2024-05-09T03:21:41.179Z,63.60
2024-05-09T03:27:04.081Z,63.50
2024-05-09T03:32:27.172Z,63.90
2024-05-09T03:37:52.544Z,63.60
2024-05-09T03:43:15.781Z,63.60
2024-05-09T03:48:38.769Z,63.50
2024-05-09T03:54:04.183Z,63.50
2024-05-09T03:59:26.852Z,63.40
2024-05-09T04:04:49.771Z,63.50
2024-05-09T04:10:23.990Z,63.40
2024-05-09T04:15:53.327Z,62.70
2024-05-09T04:21:16.024Z,62.20
2024-05-09T04:26:41.309Z,62.10
2024-05-09T04:32:04.921Z,62.20
2024-05-09T04:37:27.552Z,62.20
2024-05-09T04:42:52.790Z,61.90
2024-05-09T04:48:15.792Z,61.80
2024-05-09T04:53:38.636Z,61.90
2024-05-09T04:59:03.990Z,61.70
2024-05-09T05:04:27.007Z,62.30
2024-05-09T05:09:49.660Z,63.10
2024-05-09T05:15:15.114Z,63.80
2024-05-09T05:20:38.147Z,63.40
2024-05-09T05:26:01.136Z,62.20
2024-05-09T05:31:26.380Z,62.80
2024-05-09T05:36:49.238Z,61.80
2024-05-09T05:42:11.953Z,61.50
2024-05-09T05:47:37.314Z,60.90
2024-05-09T05:52:59.890Z,59.60
2024-05-09T05:58:22.944Z,60.70
2024-05-09T06:03:48.454Z,61.00
2024-05-09T06:09:11.691Z,60.50
2024-05-09T06:14:34.494Z,60.50
2024-05-09T06:20:00.002Z,59.90
2024-05-09T06:25:22.952Z,58.60
2024-05-09T06:30:45.767Z,59.40
2024-05-09T06:36:11.114Z,59.50
2024-05-09T06:41:34.275Z,59.80
2024-05-09T06:46:59.348Z,59.40
2024-05-09T06:52:25.915Z,59.10
2024-05-09T06:57:48.673Z,58.70
2024-05-09T07:03:13.987Z,58.40
2024-05-09T07:08:43.338Z,57.80
2024-05-09T07:14:06.808Z,57.80
2024-05-09T07:19:30.060Z,57.40
2024-05-09T07:24:56.315Z,56.20
2024-05-09T07:30:27.086Z,56.10
2024-05-09T07:36:01.215Z,53.90
2024-05-09T07:41:28.697Z,54.00
2024-05-09T07:48:13.370Z,49.50
2024-05-09T07:53:33.303Z,52.20
2024-05-09T07:58:22.724Z,48.90
2024-05-09T08:03:45.645Z,49.10
2024-05-09T08:09:13.829Z,48.30
2024-05-09T08:14:42.811Z,49.30
2024-05-09T08:20:06.850Z,49.40
2024-05-09T08:25:30.418Z,48.20
2024-05-09T08:30:56.163Z,47.20
2024-05-09T08:36:18.923Z,47.40
2024-05-09T08:41:43.642Z,47.90
2024-05-09T08:47:11.180Z,47.20
2024-05-09T08:52:34.872Z,47.50
2024-05-09T08:58:01.476Z,47.30
2024-05-09T09:03:30.497Z,47.50
2024-05-09T09:08:54.645Z,46.70
2024-05-09T09:14:17.411Z,46.90
2024-05-09T09:19:43.378Z,46.80
2024-05-09T09:25:07.675Z,45.50
2024-05-09T09:30:37.295Z,46.70
2024-05-09T09:36:04.153Z,44.40
2024-05-09T09:41:29.839Z,45.80
2024-05-09T09:46:56.204Z,46.00
2024-05-09T09:52:22.257Z,44.60
2024-05-09T09:57:45.245Z,44.60
2024-05-09T10:03:08.089Z,44.80
2024-05-09T10:08:34.916Z,45.90
2024-05-09T10:13:57.655Z,44.70
2024-05-09T10:19:27.057Z,45.50
2024-05-09T10:24:53.219Z,45.20
2024-05-09T10:30:29.717Z,45.30
2024-05-09T10:36:03.654Z,45.80
2024-05-09T10:41:28.844Z,45.90
2024-05-09T10:46:52.199Z,45.20
2024-05-09T10:52:14.903Z,46.00
2024-05-09T10:57:43.408Z,45.80
2024-05-09T11:03:06.700Z,45.20
2024-05-09T11:08:30.755Z,45.70
2024-05-09T11:13:56.143Z,45.40
2024-05-09T11:19:19.434Z,44.70
2024-05-09T11:24:42.615Z,44.30
2024-05-09T11:30:26.665Z,45.00
2024-05-09T11:35:54.483Z,44.50
2024-05-09T11:41:27.890Z,44.40
2024-05-09T11:46:53.472Z,43.90
2024-05-09T11:52:16.295Z,43.40
2024-05-09T11:57:39.545Z,42.90
2024-05-09T12:03:06.133Z,42.70
2024-05-09T12:08:28.918Z,43.20
2024-05-09T12:13:51.608Z,43.80
2024-05-09T12:19:16.993Z,43.30
2024-05-09T12:24:39.744Z,43.10
2024-05-09T12:30:02.526Z,43.80
2024-05-09T12:35:27.904Z,43.80
2024-05-09T12:40:50.830Z,43.70
2024-05-09T12:46:13.642Z,44.00
2024-05-09T12:51:39.001Z,43.50
2024-05-09T12:57:01.730Z,43.50
2024-05-09T13:02:24.688Z,43.50
2024-05-09T13:07:50.133Z,43.50
2024-05-09T13:13:13.245Z,43.40
2024-05-09T13:18:36.051Z,43.50
2024-05-09T13:24:01.514Z,43.30
2024-05-09T13:29:24.949Z,43.20
2024-05-09T13:34:47.583Z,43.40
2024-05-09T13:40:14.524Z,43.40
2024-05-09T13:45:37.402Z,43.10
2024-05-09T13:51:00.347Z,43.20
2024-05-09T13:56:25.705Z,43.30
2024-05-09T14:01:48.481Z,42.70
2024-05-09T14:07:11.593Z,43.10
2024-05-09T14:12:37.269Z,43.20
2024-05-09T14:18:00.000Z,42.10
2024-05-09T14:23:23.151Z,43.10
2024-05-09T14:28:48.379Z,43.30
2024-05-09T14:34:11.375Z,42.90
2024-05-09T14:39:34.232Z,43.10
2024-05-09T14:44:59.652Z,42.60
2024-05-09T14:50:28.105Z,43.00
2024-05-09T14:55:57.936Z,42.20
2024-05-09T15:01:23.452Z,42.80
2024-05-09T15:06:46.245Z,42.70
2024-05-09T15:12:08.985Z,42.50
2024-05-09T15:17:34.690Z,42.90
2024-05-09T15:22:58.091Z,42.70
2024-05-09T15:28:20.875Z,42.30
2024-05-09T15:33:46.366Z,42.40
2024-05-09T15:39:09.039Z,42.70
2024-05-09T15:44:31.786Z,42.50
2024-05-09T15:49:57.140Z,42.50
2024-05-09T15:55:19.761Z,42.90
2024-05-09T16:00:44.320Z,41.70
2024-05-09T16:06:10.986Z,42.40
2024-05-09T16:11:33.758Z,41.90
2024-05-09T16:16:56.667Z,42.40
2024-05-09T16:22:22.126Z,42.70
2024-05-09T16:27:45.120Z,42.60
2024-05-09T16:33:08.760Z,42.10
2024-05-09T16:38:34.907Z,42.70
2024-05-09T16:43:57.753Z,42.20
2024-05-09T16:49:20.648Z,42.60
2024-05-09T16:54:46.034Z,42.60
2024-05-09T17:00:14.786Z,42.70
2024-05-09T17:05:44.873Z,42.70
2024-05-09T17:11:10.987Z,42.80
2024-05-09T17:16:33.820Z,42.60
2024-05-09T17:21:57.037Z,42.80
2024-05-09T17:27:22.517Z,43.00
2024-05-09T17:32:45.308Z,43.00
2024-05-09T17:38:08.500Z,43.20
2024-05-09T17:43:34.078Z,43.40
2024-05-09T17:48:59.585Z,43.70
2024-05-09T17:54:23.461Z,43.70
2024-05-09T17:59:48.728Z,43.80
2024-05-09T18:05:11.617Z,43.90
2024-05-09T18:10:38.123Z,43.90
2024-05-09T18:16:06.000Z,43.90
2024-05-09T18:21:28.709Z,44.10
2024-05-09T18:26:51.429Z,44.30
2024-05-09T18:32:16.800Z,44.60
2024-05-09T18:37:40.263Z,45.00
2024-05-09T18:43:03.682Z,45.20
2024-05-09T18:48:29.189Z,45.60
2024-05-09T18:53:51.831Z,45.80
2024-05-09T18:59:14.596Z,45.90
2024-05-09T19:04:40.172Z,46.30
2024-05-09T19:10:03.384Z,46.50
2024-05-09T19:15:26.103Z,46.70
2024-05-09T19:20:51.438Z,46.90
2024-05-09T19:26:14.286Z,47.50
2024-05-09T19:31:36.975Z,47.30
2024-05-09T19:37:02.489Z,47.70
2024-05-09T19:42:25.167Z,47.90
2024-05-09T19:47:47.992Z,48.10
2024-05-09T19:53:13.451Z,48.30
2024-05-09T19:58:36.175Z,48.40
2024-05-09T20:03:58.958Z,48.60
2024-05-09T20:09:24.364Z,48.80
2024-05-09T20:14:46.966Z,49.30
2024-05-09T20:20:16.761Z,49.20
2024-05-09T20:25:49.559Z,49.50
2024-05-09T20:31:19.735Z,50.50
2024-05-09T20:36:42.664Z,51.30
2024-05-09T20:42:08.410Z,50.50
2024-05-09T20:47:31.213Z,49.90
2024-05-09T20:52:54.104Z,49.60
2024-05-09T20:58:19.446Z,49.30
2024-05-09T21:03:42.373Z,49.70
2024-05-09T21:09:05.119Z,49.80
2024-05-09T21:14:30.663Z,50.50
2024-05-09T21:19:53.559Z,51.70
2024-05-09T21:25:16.248Z,51.50
2024-05-09T21:30:43.189Z,51.50
2024-05-09T21:36:09.219Z,52.60
2024-05-09T21:41:31.869Z,52.60
2024-05-09T21:46:57.288Z,52.80
2024-05-09T21:52:20.010Z,53.20
2024-05-09T21:57:43.014Z,53.40
2024-05-09T22:03:10.271Z,53.80
2024-05-09T22:08:34.190Z,54.10
2024-05-09T22:13:56.856Z,54.20
2024-05-09T22:19:22.241Z,54.90
2024-05-09T22:24:44.948Z,55.60
2024-05-09T22:30:11.914Z,56.70
2024-05-09T22:35:42.675Z,56.20
2024-05-09T22:41:06.434Z,56.40
2024-05-09T22:46:29.266Z,56.10
2024-05-09T22:51:54.588Z,56.40
2024-05-09T22:57:17.447Z,56.90
2024-05-09T23:09:34.615Z,58.20
2024-05-09T23:14:57.498Z,57.50
2024-05-09T23:20:29.906Z,57.20
2024-05-09T23:26:02.678Z,57.30
2024-05-09T23:31:25.268Z,57.10
2024-05-09T23:36:47.934Z,57.30
2024-05-09T23:42:13.342Z,57.50
2024-05-09T23:47:36.109Z,57.90
2024-05-09T23:52:58.753Z,57.70
2024-05-09T23:58:24.092Z,58.30
